< < Back
Terminal Aerodrome Forecast


Current Version              Previous Versions:   1  2  3  4  5  6  7  8  9  

Terminal Aerodrome Forecast

460
FTUS42 KGSP 301728
TAFGSP
TAF
KGSP 301728Z 3018/3118 33010G19KT P6SM FEW250
     FM310000 35007KT P6SM SKC
     FM310500 35003KT P6SM SKC
     FM311500 28003KT P6SM FEW220=



Latest METAR

903
SAUS70 KWBC 302300 RRA
MTRGSP
METAR KGSP 302253Z 35006G19KT 10SM CLR 06/M10 A3023 RMK AO2 SLP240
T00561100


USA.gov is the U.S. government's official web portal to all federal, state and local government web resources and services.